createdAt,value
2023-04-15T04:01:26.552Z,47.97
2023-04-15T04:04:11.326Z,47.99
2023-04-15T04:06:56.200Z,48.01
2023-04-15T04:09:41.271Z,48.78
2023-04-15T04:12:26.177Z,48.62
2023-04-15T04:15:10.821Z,49.70
2023-04-15T04:17:55.955Z,48.04
2023-04-15T04:20:40.646Z,48.48
2023-04-15T04:23:25.618Z,48.80
2023-04-15T04:26:10.585Z,48.84
2023-04-15T04:28:55.583Z,48.94
2023-04-15T04:31:40.529Z,48.84
2023-04-15T04:34:25.322Z,49.83
2023-04-15T04:37:10.224Z,50.34
2023-04-15T04:39:55.056Z,50.44
2023-04-15T04:42:40.303Z,50.13
2023-04-15T04:45:25.048Z,50.70
2023-04-15T04:48:09.968Z,50.66
2023-04-15T04:50:54.760Z,50.05
2023-04-15T04:53:39.670Z,49.58
2023-04-15T04:56:24.450Z,49.89
2023-04-15T04:59:09.326Z,49.81
2023-04-15T05:01:54.357Z,49.66
2023-04-15T05:04:39.171Z,49.60
2023-04-15T05:07:24.171Z,49.61
2023-04-15T05:10:09.013Z,50.70
2023-04-15T05:12:53.991Z,51.20
2023-04-15T05:15:38.840Z,51.20
2023-04-15T05:18:23.639Z,52.00
2023-04-15T05:21:08.454Z,51.80
2023-04-15T05:23:53.290Z,51.76
2023-04-15T05:26:38.140Z,49.48
2023-04-15T05:29:23.129Z,50.15
2023-04-15T05:32:08.146Z,52.18
2023-04-15T05:34:52.953Z,52.00
2023-04-15T05:37:37.822Z,51.97
2023-04-15T05:40:22.660Z,51.21
2023-04-15T05:43:07.654Z,52.31
2023-04-15T05:45:52.542Z,53.02
2023-04-15T05:48:37.474Z,53.57
2023-04-15T05:51:22.433Z,52.73
2023-04-15T05:54:07.304Z,53.35
2023-04-15T05:56:52.140Z,53.01
2023-04-15T05:59:36.944Z,51.22
2023-04-15T06:02:21.937Z,51.74
2023-04-15T06:05:06.809Z,51.86
2023-04-15T06:07:51.669Z,51.48
2023-04-15T06:10:36.478Z,52.46
2023-04-15T06:13:21.383Z,51.93
2023-04-15T06:16:06.245Z,51.34
2023-04-15T06:18:51.082Z,50.95
2023-04-15T06:21:36.032Z,50.66
2023-04-15T06:24:20.840Z,50.43
2023-04-15T06:27:05.892Z,50.20
2023-04-15T06:29:50.625Z,48.95
2023-04-15T06:32:35.753Z,48.97
2023-04-15T06:35:20.580Z,49.48
2023-04-15T06:38:05.575Z,50.65
2023-04-15T06:40:50.626Z,50.79
2023-04-15T06:43:35.501Z,50.53
2023-04-15T06:46:20.585Z,50.02
2023-04-15T06:49:05.264Z,49.98
2023-04-15T06:51:50.166Z,48.94
2023-04-15T06:54:34.938Z,46.36
2023-04-15T06:57:20.123Z,46.01
2023-04-15T07:00:05.017Z,47.31
2023-04-15T07:02:49.958Z,49.72
2023-04-15T07:05:34.691Z,48.81
2023-04-15T07:08:19.448Z,46.96
2023-04-15T07:11:04.408Z,45.83
2023-04-15T07:13:49.277Z,49.71
2023-04-15T07:16:34.215Z,50.74
2023-04-15T07:19:19.015Z,51.43
2023-04-15T07:22:03.799Z,54.90
2023-04-15T07:24:48.706Z,54.84
2023-04-15T07:27:33.640Z,55.84
2023-04-15T07:30:18.491Z,54.32
2023-04-15T07:33:03.241Z,55.17
2023-04-15T07:35:48.050Z,54.80
2023-04-15T07:38:32.928Z,54.72
2023-04-15T07:41:18.018Z,54.57
2023-04-15T07:44:02.964Z,53.07
2023-04-15T07:46:47.866Z,52.21
2023-04-15T07:49:32.729Z,52.30
2023-04-15T07:52:17.593Z,50.95
2023-04-15T07:55:02.345Z,50.74
2023-04-15T07:57:47.431Z,54.09
2023-04-15T08:00:32.469Z,53.24
2023-04-15T08:03:17.391Z,53.12
2023-04-15T08:06:02.352Z,56.32
2023-04-15T08:08:47.159Z,55.57
2023-04-15T08:11:32.240Z,54.78
2023-04-15T08:14:17.091Z,53.00
2023-04-15T08:17:01.933Z,53.84
2023-04-15T08:19:46.857Z,55.98
2023-04-15T08:22:31.787Z,56.56
2023-04-15T08:25:16.664Z,57.93
2023-04-15T08:28:01.467Z,58.24
2023-04-15T08:30:46.513Z,59.97
2023-04-15T08:33:31.359Z,58.77
2023-04-15T08:36:16.218Z,60.54
2023-04-15T08:39:01.328Z,62.90
2023-04-15T08:41:46.490Z,62.89
2023-04-15T08:44:31.329Z,63.83
2023-04-15T08:47:16.280Z,63.69
2023-04-15T08:50:01.319Z,64.05
2023-04-15T08:52:46.097Z,65.07
2023-04-15T08:55:30.990Z,63.74
2023-04-15T08:58:15.911Z,63.96
2023-04-15T09:01:00.694Z,63.94
2023-04-15T09:03:45.537Z,64.34
2023-04-15T09:06:30.391Z,67.90
2023-04-15T09:09:15.320Z,66.08
2023-04-15T09:12:00.335Z,66.33
2023-04-15T09:14:45.134Z,65.18
2023-04-15T09:17:29.988Z,66.30
2023-04-15T09:20:14.909Z,64.91
2023-04-15T09:22:59.694Z,62.74
2023-04-15T09:25:44.553Z,64.23
2023-04-15T09:28:29.402Z,61.89
2023-04-15T09:31:14.362Z,61.47
2023-04-15T09:33:59.274Z,60.17
2023-04-15T09:36:44.051Z,57.76
2023-04-15T09:39:28.832Z,55.80
2023-04-15T09:42:13.660Z,56.09
2023-04-15T09:44:58.621Z,55.34
2023-04-15T09:47:43.620Z,54.87
2023-04-15T09:50:28.476Z,54.63
2023-04-15T09:53:13.362Z,54.05
2023-04-15T09:55:58.540Z,54.75
2023-04-15T09:58:43.328Z,52.67
2023-04-15T10:01:28.326Z,54.61
2023-04-15T10:04:13.378Z,51.36
2023-04-15T10:06:58.179Z,51.86
2023-04-15T10:09:43.083Z,51.94
2023-04-15T10:12:27.950Z,52.87
2023-04-15T10:15:12.845Z,52.98
2023-04-15T10:17:57.705Z,54.62
2023-04-15T10:20:42.578Z,55.02
2023-04-15T10:23:27.497Z,56.50
2023-04-15T10:26:12.441Z,54.90
2023-04-15T10:28:58.412Z,53.54
2023-04-15T10:31:44.099Z,52.83
2023-04-15T10:34:29.061Z,54.60
2023-04-15T10:37:13.942Z,52.53
2023-04-15T10:39:58.889Z,52.17
2023-04-15T10:42:43.687Z,50.66
2023-04-15T10:45:28.634Z,49.05
2023-04-15T10:48:13.537Z,48.99
2023-04-15T10:50:58.408Z,49.01
2023-04-15T10:53:43.416Z,48.77
2023-04-15T10:56:28.249Z,48.70
2023-04-15T10:59:13.189Z,51.24
2023-04-15T11:01:58.078Z,51.78
2023-04-15T11:04:43.203Z,49.99
2023-04-15T11:07:27.868Z,52.54
2023-04-15T11:10:12.842Z,51.49
2023-04-15T11:12:57.620Z,50.30
2023-04-15T11:15:42.388Z,50.21
2023-04-15T11:18:27.240Z,49.75
2023-04-15T11:21:12.128Z,48.77
2023-04-15T11:23:57.101Z,47.36
2023-04-15T11:26:41.990Z,48.57
2023-04-15T11:29:26.975Z,48.88
2023-04-15T11:32:11.986Z,49.18
2023-04-15T11:34:56.844Z,48.18
2023-04-15T11:37:41.703Z,50.60
2023-04-15T11:40:26.441Z,52.06
2023-04-15T11:43:11.397Z,52.62
2023-04-15T11:45:56.313Z,50.60
2023-04-15T11:48:41.186Z,50.19
2023-04-15T11:51:26.035Z,46.96
2023-04-15T11:54:10.978Z,45.81
2023-04-15T11:56:55.791Z,44.53
2023-04-15T11:59:45.318Z,47.09
2023-04-15T12:02:30.966Z,51.19
2023-04-15T12:05:15.859Z,49.84
2023-04-15T12:08:00.607Z,53.27
2023-04-15T12:10:45.493Z,54.42
2023-04-15T12:13:30.249Z,52.88
2023-04-15T12:16:15.286Z,54.57
2023-04-15T12:19:00.065Z,52.58
2023-04-15T12:21:44.923Z,52.41
2023-04-15T12:24:29.784Z,56.03
2023-04-15T12:27:14.644Z,54.56
2023-04-15T12:29:59.429Z,54.79
2023-04-15T12:32:44.375Z,57.54
2023-04-15T12:35:29.148Z,56.02
2023-04-15T12:38:14.042Z,57.05
2023-04-15T12:40:58.989Z,57.65
2023-04-15T12:43:43.880Z,56.78
2023-04-15T12:46:28.787Z,57.10
2023-04-15T12:49:13.693Z,58.28
2023-04-15T12:51:58.670Z,55.87
2023-04-15T12:54:43.450Z,54.00
2023-04-15T12:57:28.497Z,54.22
2023-04-15T13:00:13.262Z,53.70
2023-04-15T13:02:58.160Z,55.05
2023-04-15T13:05:43.168Z,55.12
2023-04-15T13:08:29.215Z,55.76
2023-04-15T13:11:13.884Z,53.76
2023-04-15T13:13:58.594Z,55.73
2023-04-15T13:16:43.464Z,55.62
2023-04-15T13:19:28.232Z,56.02
2023-04-15T13:22:13.170Z,59.29
2023-04-15T13:24:57.929Z,57.05
2023-04-15T13:27:42.707Z,53.26
2023-04-15T13:30:27.788Z,50.98
2023-04-15T13:33:12.628Z,50.67
2023-04-15T13:35:57.558Z,50.50
2023-04-15T13:38:42.572Z,51.57
2023-04-15T13:41:27.370Z,49.40
2023-04-15T13:44:12.325Z,49.42
2023-04-15T13:46:57.352Z,48.77
2023-04-15T13:49:42.274Z,50.39
2023-04-15T13:52:26.987Z,48.85
2023-04-15T13:55:19.715Z,49.53
2023-04-15T13:58:05.401Z,49.51
2023-04-15T14:00:50.191Z,49.59
2023-04-15T14:03:35.033Z,48.68
2023-04-15T14:06:19.751Z,48.20
2023-04-15T14:09:04.841Z,49.90
2023-04-15T14:11:50.000Z,48.75
2023-04-15T14:14:34.753Z,49.65
2023-04-15T14:17:19.606Z,52.42
2023-04-15T14:20:04.565Z,52.27
2023-04-15T14:22:49.484Z,52.05
2023-04-15T14:25:34.432Z,48.74
2023-04-15T14:28:19.315Z,47.97
2023-04-15T14:31:04.203Z,48.63
2023-04-15T14:33:49.011Z,47.35
2023-04-15T14:36:33.820Z,47.13
2023-04-15T14:39:18.683Z,47.80
2023-04-15T14:42:03.499Z,49.74
2023-04-15T14:44:48.301Z,47.81
2023-04-15T14:47:33.386Z,45.24
2023-04-15T14:50:18.372Z,45.63
2023-04-15T14:53:03.225Z,46.58
2023-04-15T14:55:47.973Z,47.00
2023-04-15T14:58:32.792Z,47.85
2023-04-15T15:01:17.677Z,48.45
2023-04-15T15:04:02.419Z,46.75
2023-04-15T15:06:49.044Z,46.03
2023-04-15T15:09:35.028Z,47.34
2023-04-15T15:12:20.268Z,44.89
2023-04-15T15:15:12.227Z,44.76
2023-04-15T15:18:00.629Z,46.51
2023-04-15T15:20:45.297Z,46.12
2023-04-15T15:23:30.434Z,44.85
2023-04-15T15:26:15.172Z,47.62
2023-04-15T15:29:00.057Z,46.67
2023-04-15T15:31:44.921Z,47.40
2023-04-15T15:34:29.746Z,48.77
2023-04-15T15:37:14.443Z,46.12
2023-04-15T15:39:59.490Z,47.92
2023-04-15T15:42:44.271Z,47.38
2023-04-15T15:45:29.062Z,48.04
2023-04-15T15:48:13.898Z,50.65
2023-04-15T15:50:58.746Z,49.68
2023-04-15T15:53:43.813Z,48.07
2023-04-15T15:56:28.585Z,49.08
2023-04-15T15:59:13.621Z,48.72
2023-04-15T16:01:58.624Z,48.76
2023-04-15T16:04:43.333Z,48.80
2023-04-15T16:07:28.291Z,48.48
2023-04-15T16:10:13.288Z,48.71
2023-04-15T16:12:58.234Z,47.70
2023-04-15T16:15:43.091Z,47.59
2023-04-15T16:18:27.997Z,45.83
2023-04-15T16:21:12.752Z,44.92
2023-04-15T16:23:58.216Z,43.89
2023-04-15T16:26:42.935Z,43.49
2023-04-15T16:29:27.819Z,42.90
2023-04-15T16:32:12.728Z,43.07
2023-04-15T16:34:57.507Z,43.23
2023-04-15T16:37:42.457Z,43.46
2023-04-15T16:40:27.256Z,43.79
2023-04-15T16:43:12.114Z,43.31
2023-04-15T16:45:56.979Z,43.89
2023-04-15T16:48:41.973Z,44.32
2023-04-15T16:51:26.986Z,43.34
2023-04-15T16:54:11.911Z,43.91
2023-04-15T16:56:56.870Z,42.60
2023-04-15T16:59:41.865Z,43.38
2023-04-15T17:02:26.867Z,43.78
2023-04-15T17:05:11.570Z,43.41
2023-04-15T17:07:56.568Z,43.11
2023-04-15T17:10:41.406Z,44.61
2023-04-15T17:13:26.383Z,45.68
2023-04-15T17:16:11.210Z,47.64
2023-04-15T17:18:56.232Z,47.81
2023-04-15T17:21:41.163Z,48.00
2023-04-15T17:24:26.122Z,48.44
2023-04-15T17:27:11.060Z,46.90
2023-04-15T17:29:56.036Z,48.04
2023-04-15T17:32:41.166Z,47.70
2023-04-15T17:35:25.844Z,47.36
2023-04-15T17:38:10.609Z,46.82
2023-04-15T17:40:55.372Z,47.25
2023-04-15T17:43:40.254Z,49.05
2023-04-15T17:46:25.197Z,50.05
2023-04-15T17:49:10.008Z,51.34
2023-04-15T17:51:54.977Z,50.48
2023-04-15T17:54:39.966Z,49.83
2023-04-15T17:57:24.994Z,49.65
2023-04-15T18:00:09.791Z,49.45
2023-04-15T18:02:55.065Z,49.98
2023-04-15T18:05:42.060Z,49.31
2023-04-15T18:08:27.544Z,49.37
2023-04-15T18:11:12.491Z,49.05
2023-04-15T18:13:57.332Z,49.26
2023-04-15T18:16:42.354Z,48.70
2023-04-15T18:19:27.093Z,50.17
2023-04-15T18:22:11.965Z,49.75
2023-04-15T18:24:56.751Z,50.14
2023-04-15T18:27:41.689Z,50.88
2023-04-15T18:30:26.511Z,52.25
2023-04-15T18:33:11.419Z,50.03
2023-04-15T18:35:56.403Z,50.08
2023-04-15T18:38:41.259Z,49.91
2023-04-15T18:41:26.305Z,49.42
2023-04-15T18:44:11.208Z,49.65
2023-04-15T18:46:56.071Z,49.88
2023-04-15T18:49:40.985Z,49.64
2023-04-15T18:52:25.901Z,50.09
2023-04-15T18:55:10.738Z,52.20
2023-04-15T18:57:56.683Z,52.18
2023-04-15T19:00:41.821Z,51.14
2023-04-15T19:03:26.589Z,51.24
2023-04-15T19:06:11.330Z,51.66
2023-04-15T19:08:56.170Z,52.77
2023-04-15T19:11:41.020Z,52.16
2023-04-15T19:14:25.820Z,51.94
2023-04-15T19:17:10.571Z,53.15
2023-04-15T19:19:55.546Z,51.11
2023-04-15T19:22:40.382Z,52.12
2023-04-15T19:25:25.326Z,51.74
2023-04-15T19:28:10.083Z,55.47
2023-04-15T19:30:55.026Z,56.17
2023-04-15T19:33:39.786Z,55.16
2023-04-15T19:36:24.733Z,54.56
2023-04-15T19:39:09.571Z,54.38
2023-04-15T19:41:55.262Z,56.87
2023-04-15T19:44:40.406Z,57.13
2023-04-15T19:47:25.311Z,57.65
2023-04-15T19:50:10.237Z,56.52
2023-04-15T19:52:55.093Z,57.09
2023-04-15T19:55:40.071Z,57.46
2023-04-15T19:58:24.936Z,58.85
2023-04-15T20:01:09.869Z,62.14
2023-04-15T20:03:54.902Z,60.91
2023-04-15T20:06:40.154Z,59.75
2023-04-15T20:09:25.144Z,60.20
2023-04-15T20:12:50.151Z,58.89
2023-04-15T20:15:14.485Z,56.49
2023-04-15T20:17:59.427Z,59.98
2023-04-15T20:20:44.388Z,59.32
2023-04-15T20:23:29.336Z,58.69
2023-04-15T20:26:14.075Z,58.41
2023-04-15T20:28:59.100Z,59.62
2023-04-15T20:31:44.054Z,59.10
2023-04-15T20:34:28.817Z,58.37
2023-04-15T20:37:13.591Z,58.30
2023-04-15T20:39:58.551Z,61.83
2023-04-15T20:42:43.525Z,61.74
2023-04-15T20:45:28.355Z,59.92
2023-04-15T20:48:13.458Z,59.33
2023-04-15T20:50:58.309Z,59.21
2023-04-15T20:53:43.339Z,56.89
2023-04-15T20:56:28.175Z,56.72
2023-04-15T20:59:13.137Z,60.32
